Time;durP1;ratioP1;P1;durP2;ratioP2;P2;SDS_P1;SDS_P2;PMS_P1;PMS_P2;Temp;Humidity;BMP_temperature;BMP_pressure;BME280_temperature;BME280_humidity;BME280_pressure;Samples;Min_cycle;Max_cycle;Signal;HPM_P1;HPM_P2
2020/12/31 00:01:20;;;;;;;12.13;11.27;;;5.60;99.90;;;;;;5091349;28;20434;-64
2020/12/31 00:03:46;;;;;;;13.50;12.70;;;5.60;99.90;;;;;;5091505;28;20445;-64
2020/12/31 00:06:12;;;;;;;12.53;11.70;;;5.60;99.90;;;;;;5091527;28;20439;-64
2020/12/31 00:08:39;;;;;;;12.67;11.87;;;5.50;99.90;;;;;;5091397;28;20450;-64
2020/12/31 00:11:05;;;;;;;12.83;11.83;;;5.50;99.90;;;;;;5091409;28;20478;-64
2020/12/31 00:13:32;;;;;;;12.13;11.33;;;5.50;99.90;;;;;;5091659;28;20442;-64
2020/12/31 00:15:59;;;;;;;12.70;11.70;;;5.50;99.90;;;;;;5091360;28;20446;-64
2020/12/31 00:18:25;;;;;;;12.80;11.80;;;5.50;99.90;;;;;;5091575;28;20854;-64
2020/12/31 00:20:51;;;;;;;14.07;13.03;;;5.40;99.90;;;;;;5091212;28;20466;-64
2020/12/31 00:23:17;;;;;;;13.27;12.10;;;5.40;99.90;;;;;;5091376;28;20442;-64
2020/12/31 00:25:47;;;;;;;13.30;12.30;;;5.40;99.90;;;;;;5091508;28;20438;-64
2020/12/31 00:28:13;;;;;;;13.33;12.23;;;5.40;99.90;;;;;;5091370;28;20465;-64
2020/12/31 00:30:41;;;;;;;11.90;11.07;;;5.30;99.90;;;;;;5090860;28;20535;-64
2020/12/31 00:33:07;;;;;;;11.40;10.60;;;5.30;99.90;;;;;;5091539;28;20434;-64
2020/12/31 00:35:33;;;;;;;11.10;10.20;;;5.30;99.90;;;;;;5091235;28;20446;-64
2020/12/31 00:37:59;;;;;;;10.83;9.80;;;5.30;99.90;;;;;;5091309;28;20450;-64
2020/12/31 00:40:26;;;;;;;10.20;9.60;;;5.20;99.90;;;;;;5090974;28;20975;-64
2020/12/31 00:42:52;;;;;;;11.20;10.30;;;5.20;99.90;;;;;;5091302;28;20435;-64
2020/12/31 00:45:18;;;;;;;11.90;11.00;;;5.20;99.90;;;;;;5091501;28;20442;-64
2020/12/31 00:47:45;;;;;;;13.37;12.17;;;5.10;99.90;;;;;;5091373;28;20447;-64
2020/12/31 00:50:12;;;;;;;12.67;11.50;;;5.20;99.90;;;;;;5090776;28;20485;-64
2020/12/31 00:52:38;;;;;;;13.40;12.27;;;5.20;99.90;;;;;;5094261;28;20430;-64
2020/12/31 00:55:04;;;;;;;12.80;11.80;;;5.10;99.90;;;;;;5094821;28;20499;-64
2020/12/31 00:57:31;;;;;;;11.83;10.90;;;5.10;99.90;;;;;;5094781;28;20450;-64
2020/12/31 00:59:57;;;;;;;11.87;10.97;;;5.10;99.90;;;;;;5094400;28;20512;-64
2020/12/31 01:02:23;;;;;;;12.70;11.60;;;5.10;99.90;;;;;;5094584;28;20443;-64
2020/12/31 01:04:50;;;;;;;13.07;11.47;;;5.10;99.90;;;;;;5094482;28;20438;-64
2020/12/31 01:07:16;;;;;;;12.20;11.10;;;5.10;99.90;;;;;;5094437;28;20439;-64
2020/12/31 01:09:43;;;;;;;11.97;10.97;;;5.10;99.90;;;;;;5094190;28;20478;-64
2020/12/31 01:12:09;;;;;;;13.07;11.93;;;5.10;99.90;;;;;;5094546;28;20847;-64
2020/12/31 01:14:36;;;;;;;11.97;10.97;;;5.00;99.90;;;;;;5094249;28;20470;-64
2020/12/31 01:17:02;;;;;;;12.60;11.60;;;5.00;99.90;;;;;;5094194;28;20443;-64
2020/12/31 01:19:29;;;;;;;13.33;12.20;;;5.00;99.90;;;;;;5094232;28;20979;-64
2020/12/31 01:21:56;;;;;;;12.07;10.97;;;5.00;99.90;;;;;;5093923;28;20932;-64
2020/12/31 01:24:22;;;;;;;12.83;11.83;;;5.00;99.90;;;;;;5094149;28;20446;-64
2020/12/31 01:26:48;;;;;;;13.93;11.80;;;5.00;99.90;;;;;;5094117;28;20444;-64
2020/12/31 01:29:14;;;;;;;13.23;12.23;;;5.00;99.90;;;;;;5094023;28;20466;-64
2020/12/31 01:31:41;;;;;;;12.23;10.90;;;5.00;99.90;;;;;;5093689;28;20496;-64
2020/12/31 01:34:07;;;;;;;12.40;10.50;;;5.00;99.90;;;;;;5094086;28;20445;-64
2020/12/31 01:36:34;;;;;;;11.73;10.73;;;5.00;99.90;;;;;;5093929;28;20449;-64
2020/12/31 01:39:01;;;;;;;12.00;11.10;;;5.00;99.90;;;;;;5093565;28;20478;-64
2020/12/31 01:41:27;;;;;;;12.50;11.37;;;5.00;99.90;;;;;;5093873;28;20442;-64
2020/12/31 01:44:02;;;;;;;12.10;11.17;;;5.10;99.90;;;;;;5093667;28;20442;-64
2020/12/31 01:46:32;;;;;;;12.87;11.93;;;5.10;99.90;;;;;;5093721;28;20438;-64
2020/12/31 01:48:59;;;;;;;12.20;11.20;;;5.10;99.90;;;;;;5093925;28;20937;-64
2020/12/31 01:51:26;;;;;;;12.50;11.37;;;5.10;99.90;;;;;;5093380;28;20535;-64
2020/12/31 01:53:56;;;;;;;13.10;11.90;;;5.20;99.90;;;;;;5093763;28;20438;-64
2020/12/31 01:56:27;;;;;;;15.43;14.10;;;5.20;99.90;;;;;;5093891;28;20443;-64
2020/12/31 01:58:53;;;;;;;13.63;12.57;;;5.20;99.90;;;;;;5093395;28;20463;-64
2020/12/31 02:01:21;;;;;;;13.23;12.13;;;5.20;99.90;;;;;;5093301;28;20431;-64
2020/12/31 02:03:47;;;;;;;13.83;12.77;;;5.20;99.90;;;;;;5092832;28;20461;-64
2020/12/31 02:06:13;;;;;;;13.93;12.93;;;5.30;99.90;;;;;;5093228;28;20969;-64
2020/12/31 02:08:40;;;;;;;13.57;12.40;;;5.30;99.90;;;;;;5093432;28;20438;-65
2020/12/31 02:11:06;;;;;;;13.97;12.77;;;5.20;99.90;;;;;;5093041;28;20482;-65
2020/12/31 02:13:33;;;;;;;13.47;12.37;;;5.30;99.90;;;;;;5093309;28;20438;-65
2020/12/31 02:16:01;;;;;;;12.60;11.60;;;5.30;99.90;;;;;;5093127;28;20447;-65
2020/12/31 02:18:28;;;;;;;13.60;12.60;;;5.20;99.90;;;;;;5093060;28;20890;-65
2020/12/31 02:20:55;;;;;;;14.23;12.87;;;5.20;99.90;;;;;;5092788;28;20458;-65
2020/12/31 02:23:22;;;;;;;14.37;13.17;;;5.20;99.90;;;;;;5093195;28;20442;-63
2020/12/31 02:25:49;;;;;;;12.47;11.57;;;5.20;99.90;;;;;;5092925;28;20442;-65
2020/12/31 02:28:15;;;;;;;13.27;11.40;;;5.20;99.90;;;;;;5092873;28;20465;-65
2020/12/31 02:30:41;;;;;;;11.93;11.03;;;5.10;99.90;;;;;;5092347;28;20569;-64
2020/12/31 02:33:07;;;;;;;12.43;11.10;;;5.10;99.90;;;;;;5092759;28;20499;-64
2020/12/31 02:35:33;;;;;;;13.27;12.07;;;5.10;99.90;;;;;;5092719;28;20433;-64
2020/12/31 02:38:00;;;;;;;12.10;11.13;;;5.10;99.90;;;;;;5092750;28;20450;-65
2020/12/31 02:40:27;;;;;;;12.73;11.67;;;5.10;99.90;;;;;;5092375;28;20470;-65
2020/12/31 02:42:53;;;;;;;14.00;12.70;;;5.00;99.90;;;;;;5092721;28;20438;-65
2020/12/31 02:45:19;;;;;;;11.67;10.60;;;5.00;99.90;;;;;;5092523;28;20442;-65
2020/12/31 02:47:46;;;;;;;11.13;10.10;;;4.90;99.90;;;;;;5092550;28;20446;-64
2020/12/31 02:50:12;;;;;;;10.93;10.13;;;4.90;99.90;;;;;;5092059;28;20492;-64
2020/12/31 02:52:38;;;;;;;10.47;9.77;;;4.90;99.90;;;;;;5092369;28;20442;-64
2020/12/31 02:55:04;;;;;;;11.13;10.30;;;4.80;99.90;;;;;;5092401;28;20450;-64
2020/12/31 02:57:31;;;;;;;11.93;10.93;;;4.80;99.90;;;;;;5092345;28;20454;-64
2020/12/31 02:59:58;;;;;;;10.30;9.50;;;4.80;99.90;;;;;;5091946;28;20466;-65
2020/12/31 03:02:24;;;;;;;10.20;9.40;;;4.80;99.90;;;;;;5092398;28;20446;-64
2020/12/31 03:04:50;;;;;;;9.67;8.77;;;4.80;99.90;;;;;;5092262;28;20442;-63
2020/12/31 03:07:16;;;;;;;10.33;9.27;;;4.80;99.90;;;;;;5092166;28;20442;-64
2020/12/31 03:09:43;;;;;;;9.77;9.03;;;4.80;99.90;;;;;;5091932;28;20454;-63
2020/12/31 03:12:10;;;;;;;10.43;9.53;;;4.80;99.90;;;;;;5092026;28;20450;-64
2020/12/31 03:14:37;;;;;;;10.17;9.27;;;4.80;99.90;;;;;;5091248;28;20438;-64
2020/12/31 03:17:03;;;;;;;11.00;10.10;;;4.80;99.90;;;;;;5092183;28;20472;-64
2020/12/31 03:19:29;;;;;;;9.10;8.40;;;4.80;99.90;;;;;;5091932;28;20458;-64
2020/12/31 03:21:55;;;;;;;10.60;9.60;;;4.80;99.90;;;;;;5091843;28;20940;-63
2020/12/31 03:24:22;;;;;;;9.50;8.83;;;4.80;99.90;;;;;;5092022;28;20446;-63
2020/12/31 03:26:48;;;;;;;9.50;8.80;;;4.80;99.90;;;;;;5092001;28;20442;-64
2020/12/31 03:29:14;;;;;;;9.33;8.53;;;4.80;99.90;;;;;;5091796;28;20455;-63
2020/12/31 03:31:41;;;;;;;10.27;9.33;;;4.80;99.90;;;;;;5092002;28;20478;-64
2020/12/31 03:34:07;;;;;;;7.43;6.83;;;4.80;99.90;;;;;;5091917;28;20434;-64
2020/12/31 03:36:34;;;;;;;10.07;9.17;;;4.80;99.90;;;;;;5092144;28;20442;-65
2020/12/31 03:39:00;;;;;;;6.87;6.37;;;4.80;99.90;;;;;;5091630;28;20478;-65
2020/12/31 03:41:26;;;;;;;9.07;8.20;;;4.80;99.90;;;;;;5091623;28;20430;-65
2020/12/31 03:43:52;;;;;;;9.60;8.10;;;4.80;99.90;;;;;;5091765;28;20438;-64
2020/12/31 03:46:19;;;;;;;7.27;6.57;;;4.70;99.90;;;;;;5091886;28;20438;-65
2020/12/31 03:48:46;;;;;;;8.60;7.83;;;4.70;99.90;;;;;;5091758;28;20442;-65
2020/12/31 03:51:12;;;;;;;8.67;7.80;;;4.70;99.90;;;;;;5091340;28;20532;-65
2020/12/31 03:53:38;;;;;;;9.90;8.20;;;4.70;99.90;;;;;;5091626;28;20430;-65
2020/12/31 03:56:04;;;;;;;6.77;6.23;;;4.60;99.90;;;;;;5091575;28;20438;-65
2020/12/31 03:58:31;;;;;;;8.00;7.20;;;4.60;99.90;;;;;;5091668;28;20438;-65
2020/12/31 04:00:57;;;;;;;7.37;6.80;;;4.70;99.90;;;;;;5091329;28;20442;-65
2020/12/31 04:03:23;;;;;;;7.00;6.40;;;4.60;99.90;;;;;;5091612;28;20443;-65
2020/12/31 04:05:50;;;;;;;8.53;7.67;;;4.60;99.90;;;;;;5091633;28;20449;-65
2020/12/31 04:08:17;;;;;;;7.70;7.03;;;4.60;99.90;;;;;;5091629;28;20442;-65
2020/12/31 04:10:43;;;;;;;8.03;7.00;;;4.50;99.90;;;;;;5091173;28;20490;-65
2020/12/31 04:13:09;;;;;;;9.27;7.90;;;4.60;99.90;;;;;;5091382;28;20439;-65
2020/12/31 04:15:35;;;;;;;9.73;8.93;;;4.60;99.90;;;;;;5091434;28;20461;-65
2020/12/31 04:18:02;;;;;;;10.23;9.10;;;4.50;99.90;;;;;;5091551;28;20808;-65
2020/12/31 04:20:28;;;;;;;11.47;9.40;;;4.50;99.90;;;;;;5090986;28;21011;-65
2020/12/31 04:22:55;;;;;;;8.80;8.00;;;4.50;99.90;;;;;;5091370;28;20491;-63
2020/12/31 04:25:21;;;;;;;9.50;8.50;;;4.50;99.90;;;;;;5092666;28;20838;-64
2020/12/31 04:27:47;;;;;;;10.10;9.00;;;4.50;99.90;;;;;;5095273;28;20472;-64
2020/12/31 04:30:13;;;;;;;11.87;9.80;;;4.50;99.90;;;;;;5094897;28;20489;-64
2020/12/31 04:32:40;;;;;;;11.87;10.30;;;4.50;99.90;;;;;;5095314;28;20445;-64
2020/12/31 04:35:06;;;;;;;11.47;10.43;;;4.50;99.90;;;;;;5095211;28;20449;-64
2020/12/31 04:37:32;;;;;;;11.13;9.40;;;4.50;99.90;;;;;;5095174;28;20815;-64
2020/12/31 04:39:59;;;;;;;10.60;9.37;;;4.50;99.90;;;;;;5094524;28;20987;-63
2020/12/31 04:42:34;;;;;;;13.53;10.87;;;4.50;99.90;;;;;;5094954;28;20438;-63
2020/12/31 04:45:01;;;;;;;11.87;10.63;;;4.50;99.90;;;;;;5095460;28;20811;-64
2020/12/31 04:47:31;;;;;;;13.03;11.70;;;4.50;99.90;;;;;;5094870;28;20445;-65
2020/12/31 04:49:57;;;;;;;10.37;9.47;;;4.50;99.90;;;;;;5094716;28;20485;-65
2020/12/31 04:52:24;;;;;;;12.30;11.07;;;4.50;99.90;;;;;;5094638;28;20468;-64
2020/12/31 04:54:51;;;;;;;13.53;9.70;;;4.50;99.90;;;;;;5094769;28;20495;-65
2020/12/31 04:57:18;;;;;;;10.73;9.60;;;4.50;99.90;;;;;;5094650;28;20435;-65
2020/12/31 04:59:44;;;;;;;11.57;10.23;;;4.50;99.90;;;;;;5094439;28;20458;-65
2020/12/31 05:02:10;;;;;;;11.77;10.67;;;4.50;99.90;;;;;;5094532;28;20447;-64
2020/12/31 05:04:37;;;;;;;11.40;9.40;;;4.50;99.90;;;;;;5094602;28;20446;-65
2020/12/31 05:07:03;;;;;;;10.20;9.17;;;4.50;99.90;;;;;;5094559;28;20438;-65
2020/12/31 05:09:29;;;;;;;8.50;7.70;;;4.50;99.90;;;;;;5094402;28;20837;-65
2020/12/31 05:11:56;;;;;;;8.63;7.60;;;4.50;99.90;;;;;;5094082;28;20478;-65
2020/12/31 05:14:30;;;;;;;8.47;7.60;;;4.50;99.90;;;;;;5094316;28;20469;-64
2020/12/31 05:17:10;;;;;;;7.50;6.80;;;4.60;99.90;;;;;;5094291;28;20551;-65
2020/12/31 05:19:37;;;;;;;7.27;6.57;;;4.60;99.90;;;;;;5094008;28;20508;-64
2020/12/31 05:22:14;;;;;;;9.73;7.87;;;4.60;99.90;;;;;;5094122;28;20802;-64
2020/12/31 05:24:43;;;;;;;7.97;7.27;;;4.70;99.90;;;;;;5094101;28;20446;-64
2020/12/31 05:27:23;;;;;;;8.20;7.47;;;4.70;99.90;;;;;;5094146;28;20511;-65
2020/12/31 05:29:59;;;;;;;8.37;7.37;;;4.70;99.90;;;;;;5093629;28;20467;-65
2020/12/31 05:32:26;;;;;;;8.70;7.37;;;4.60;99.90;;;;;;5094094;28;20468;-65
2020/12/31 05:34:54;;;;;;;8.10;7.30;;;4.70;99.90;;;;;;5093890;28;20451;-65
2020/12/31 05:37:21;;;;;;;7.83;7.13;;;4.70;99.90;;;;;;5093058;28;20499;-64
2020/12/31 05:40:01;;;;;;;13.43;9.60;;;4.60;99.90;;;;;;5093541;28;20477;-64
2020/12/31 05:42:29;;;;;;;7.40;6.63;;;4.60;99.90;;;;;;5093737;28;20442;-64
2020/12/31 05:45:01;;;;;;;6.40;5.80;;;4.60;99.90;;;;;;5093844;28;20468;-64
2020/12/31 05:47:28;;;;;;;7.57;6.43;;;4.60;99.90;;;;;;5093707;28;20442;-64
2020/12/31 05:49:54;;;;;;;7.30;6.10;;;4.60;99.90;;;;;;5093272;28;20466;-65
2020/12/31 05:52:38;;;;;;;7.33;6.63;;;4.60;99.90;;;;;;5093479;28;20868;-65
2020/12/31 05:55:07;;;;;;;6.50;5.90;;;4.50;99.90;;;;;;5093496;28;21019;-64
2020/12/31 05:57:47;;;;;;;6.03;5.27;;;4.50;99.90;;;;;;5093501;28;20446;-64
2020/12/31 06:00:17;;;;;;;7.10;6.40;;;4.50;99.90;;;;;;5093201;28;20450;-64
2020/12/31 06:02:45;;;;;;;6.10;5.50;;;4.50;99.90;;;;;;5093391;28;20434;-65
2020/12/31 06:05:14;;;;;;;6.23;5.63;;;4.50;99.90;;;;;;5093583;28;20434;-65
2020/12/31 06:07:46;;;;;;;5.60;5.20;;;4.40;99.90;;;;;;5093308;28;20485;-65
2020/12/31 06:10:21;;;;;;;6.73;5.40;;;4.50;99.90;;;;;;5092820;28;20481;-65
2020/12/31 06:12:49;;;;;;;6.23;5.63;;;4.40;99.90;;;;;;5093299;28;20438;-65
2020/12/31 06:15:22;;;;;;;5.50;5.10;;;4.40;99.90;;;;;;5093000;28;20488;-64
2020/12/31 06:17:50;;;;;;;5.67;5.27;;;4.40;99.90;;;;;;5093191;28;20500;-65
2020/12/31 06:20:17;;;;;;;6.13;5.53;;;4.40;99.90;;;;;;5092736;28;20459;-65
2020/12/31 06:23:01;;;;;;;5.80;5.37;;;4.30;99.90;;;;;;5093003;28;20438;-66
2020/12/31 06:25:42;;;;;;;6.47;5.87;;;4.40;99.90;;;;;;5092903;28;20442;-65
2020/12/31 06:28:19;;;;;;;6.57;5.97;;;4.40;99.90;;;;;;5093057;28;20445;-64
2020/12/31 06:30:47;;;;;;;5.37;4.90;;;4.30;99.90;;;;;;5092500;28;20486;-65
2020/12/31 06:33:23;;;;;;;5.43;5.03;;;4.30;99.90;;;;;;5092765;28;20442;-64
2020/12/31 06:35:57;;;;;;;5.63;5.13;;;4.30;99.90;;;;;;5092837;28;21017;-65
2020/12/31 06:38:35;;;;;;;6.00;5.60;;;4.30;99.90;;;;;;5092796;28;20442;-64
2020/12/31 06:41:02;;;;;;;5.53;5.13;;;4.30;99.90;;;;;;5092458;28;20520;-65
2020/12/31 06:43:39;;;;;;;5.97;5.47;;;4.30;99.90;;;;;;5092670;28;20446;-65
2020/12/31 06:46:18;;;;;;;8.07;6.50;;;4.30;99.90;;;;;;5092649;28;20441;-65
2020/12/31 06:48:49;;;;;;;6.27;5.67;;;4.30;99.90;;;;;;5092497;28;20434;-65
2020/12/31 06:51:23;;;;;;;6.47;5.83;;;4.30;99.90;;;;;;5092190;28;20469;-65
2020/12/31 06:53:50;;;;;;;6.30;5.80;;;4.30;99.90;;;;;;5092525;28;20452;-66
2020/12/31 06:56:16;;;;;;;4.70;4.30;;;4.30;99.90;;;;;;5092337;28;20434;-66
2020/12/31 06:58:44;;;;;;;4.03;3.73;;;4.30;99.90;;;;;;5092129;28;20442;-65
2020/12/31 07:01:28;;;;;;;4.33;4.00;;;4.30;99.90;;;;;;5092175;28;20984;-66
2020/12/31 07:03:54;;;;;;;5.73;3.87;;;4.30;99.90;;;;;;5092304;28;20534;-65
2020/12/31 07:06:30;;;;;;;4.47;4.07;;;4.30;99.90;;;;;;5092142;28;20441;-64
2020/12/31 07:08:58;;;;;;;5.33;4.87;;;4.30;99.90;;;;;;5099692;28;20842;-64
2020/12/31 07:11:38;;;;;;;5.83;5.33;;;4.30;99.90;;;;;;5091816;28;20482;-65
2020/12/31 07:14:23;;;;;;;5.50;5.00;;;4.30;99.90;;;;;;5092187;28;20499;-65
2020/12/31 07:17:00;;;;;;;7.63;6.93;;;4.30;99.90;;;;;;5091293;28;20963;-63
2020/12/31 07:19:44;;;;;;;7.13;6.47;;;4.30;99.90;;;;;;5092033;28;20527;-65
2020/12/31 07:22:21;;;;;;;7.00;6.30;;;4.20;99.90;;;;;;5091984;28;20426;-65
2020/12/31 07:24:55;;;;;;;14.90;7.37;;;4.20;99.90;;;;;;5091884;28;20512;-64
2020/12/31 07:27:27;;;;;;;8.27;6.73;;;4.20;99.90;;;;;;5091789;28;20435;-65
2020/12/31 07:30:03;;;;;;;6.37;5.77;;;4.20;99.90;;;;;;5091541;28;20462;-64
2020/12/31 07:32:56;;;;;;;7.83;7.00;;;4.20;99.90;;;;;;5091848;28;20503;-64
2020/12/31 07:35:34;;;;;;;7.87;7.10;;;4.20;99.90;;;;;;5091742;28;20545;-64
2020/12/31 07:38:04;;;;;;;10.70;7.40;;;4.10;99.90;;;;;;5091737;28;20438;-64
2020/12/31 07:40:40;;;;;;;9.70;8.33;;;4.10;99.90;;;;;;5091295;28;20496;-64
2020/12/31 07:43:10;;;;;;;7.77;6.87;;;4.10;99.90;;;;;;5091884;28;20445;-63
2020/12/31 07:45:38;;;;;;;7.73;7.00;;;4.10;99.90;;;;;;5091591;28;20450;-64
2020/12/31 07:48:06;;;;;;;8.10;7.10;;;4.00;99.90;;;;;;5091555;28;20447;-64
2020/12/31 07:50:33;;;;;;;7.10;6.40;;;4.00;99.90;;;;;;5091252;28;20891;-64
2020/12/31 07:53:01;;;;;;;8.23;7.43;;;4.00;99.90;;;;;;5091710;28;20812;-64
2020/12/31 07:55:29;;;;;;;6.37;5.77;;;4.00;99.90;;;;;;5091698;28;20444;-64
2020/12/31 07:57:58;;;;;;;7.93;7.13;;;4.00;99.90;;;;;;5091783;28;20442;-64
2020/12/31 08:00:26;;;;;;;8.23;7.43;;;4.00;99.90;;;;;;5092751;28;20465;-65
2020/12/31 08:02:55;;;;;;;9.40;7.70;;;4.00;99.90;;;;;;5095706;28;20490;-69
2020/12/31 08:05:25;;;;;;;9.90;8.53;;;4.10;99.90;;;;;;5095627;28;20466;-67
2020/12/31 08:07:54;;;;;;;10.00;8.00;;;4.80;99.90;;;;;;5095550;28;20812;-67
2020/12/31 08:10:22;;;;;;;7.27;6.53;;;5.10;99.90;;;;;;5095159;28;21072;-67
2020/12/31 08:12:58;;;;;;;7.70;6.93;;;5.20;99.90;;;;;;5095510;28;20523;-65
2020/12/31 08:15:26;;;;;;;8.83;7.07;;;5.40;99.90;;;;;;5095423;28;20438;-65
2020/12/31 08:17:56;;;;;;;8.07;7.10;;;5.40;99.90;;;;;;5095468;28;20442;-65
2020/12/31 08:20:26;;;;;;;9.10;8.20;;;5.10;99.90;;;;;;5094606;28;20525;-64
2020/12/31 08:22:56;;;;;;;9.27;8.43;;;4.80;99.90;;;;;;5094962;28;20442;-64
2020/12/31 08:25:25;;;;;;;8.63;7.50;;;4.70;99.90;;;;;;5095036;28;20928;-64
2020/12/31 08:27:52;;;;;;;10.07;9.17;;;4.60;99.90;;;;;;5095183;28;20438;-64
2020/12/31 08:30:20;;;;;;;10.23;9.30;;;4.40;99.90;;;;;;5094805;28;20574;-64
2020/12/31 08:32:52;;;;;;;8.63;7.77;;;4.40;99.90;;;;;;5095214;28;20446;-64
2020/12/31 08:35:24;;;;;;;10.40;9.50;;;4.30;99.90;;;;;;5095176;28;20453;-64
2020/12/31 08:38:03;;;;;;;10.87;9.90;;;4.30;99.90;;;;;;5095052;28;20449;-64
2020/12/31 08:40:30;;;;;;;11.30;10.20;;;4.30;99.90;;;;;;5094619;28;20466;-64
2020/12/31 08:42:57;;;;;;;11.47;10.30;;;4.30;99.90;;;;;;5094977;28;20460;-64
2020/12/31 08:45:33;;;;;;;10.67;9.67;;;4.30;99.90;;;;;;5094913;28;20446;-64
2020/12/31 08:48:11;;;;;;;10.10;9.00;;;4.30;99.90;;;;;;5094555;28;20465;-64
2020/12/31 08:50:39;;;;;;;10.87;9.73;;;4.20;99.90;;;;;;5094139;28;20478;-64
2020/12/31 08:53:05;;;;;;;12.20;11.00;;;4.20;99.90;;;;;;5094752;28;20455;-64
2020/12/31 08:55:35;;;;;;;12.13;10.73;;;4.20;99.90;;;;;;5094614;28;20442;-64
2020/12/31 08:58:15;;;;;;;13.50;11.17;;;4.20;99.90;;;;;;5094899;28;20499;-65
2020/12/31 09:00:42;;;;;;;11.57;10.30;;;4.30;99.90;;;;;;5094303;28;20519;-65
2020/12/31 09:03:08;;;;;;;14.13;12.60;;;4.40;99.90;;;;;;5094844;28;20442;-65
2020/12/31 09:05:35;;;;;;;10.97;9.87;;;4.50;99.90;;;;;;5094293;28;20442;-65
2020/12/31 09:08:06;;;;;;;11.63;10.37;;;4.50;99.90;;;;;;5094196;28;21170;-65
2020/12/31 09:10:34;;;;;;;11.17;10.00;;;4.50;99.90;;;;;;5094180;28;20486;-65
2020/12/31 09:13:01;;;;;;;10.93;9.83;;;4.50;99.90;;;;;;5093217;28;20446;-65
2020/12/31 09:15:28;;;;;;;11.47;10.27;;;4.50;99.90;;;;;;5094354;28;20468;-64
2020/12/31 09:17:55;;;;;;;12.03;8.83;;;4.50;99.90;;;;;;5094292;28;20470;-64
2020/12/31 09:20:26;;;;;;;11.33;10.33;;;4.60;99.90;;;;;;5093705;28;20494;-65
2020/12/31 09:22:53;;;;;;;13.37;10.50;;;4.60;99.90;;;;;;5093999;28;20989;-65
2020/12/31 09:25:21;;;;;;;12.07;10.83;;;4.70;99.90;;;;;;5094303;28;20442;-64
2020/12/31 09:27:47;;;;;;;11.87;10.07;;;4.60;99.90;;;;;;5094029;28;20452;-65
2020/12/31 09:30:18;;;;;;;10.83;9.83;;;4.70;99.90;;;;;;5093658;28;20474;-65
2020/12/31 09:32:47;;;;;;;10.20;9.10;;;4.70;99.90;;;;;;5093862;28;20442;-65
2020/12/31 09:35:14;;;;;;;9.93;9.07;;;4.70;99.90;;;;;;5093695;28;20457;-64
2020/12/31 09:37:48;;;;;;;11.27;10.10;;;4.80;99.90;;;;;;5094007;28;20447;-64
2020/12/31 09:40:15;;;;;;;12.43;10.97;;;4.80;99.90;;;;;;5093572;28;20910;-64
2020/12/31 09:42:43;;;;;;;10.60;9.60;;;4.80;99.90;;;;;;5093679;28;20450;-64
2020/12/31 09:45:09;;;;;;;14.80;11.90;;;4.90;99.90;;;;;;5093872;28;20542;-64
2020/12/31 09:47:36;;;;;;;13.17;10.87;;;4.90;99.90;;;;;;5093850;28;20446;-64
2020/12/31 09:50:03;;;;;;;11.50;10.60;;;4.90;99.90;;;;;;5093519;28;21014;-65
2020/12/31 09:52:31;;;;;;;11.97;10.50;;;5.00;99.90;;;;;;5093546;28;21195;-65
2020/12/31 09:54:58;;;;;;;10.60;9.63;;;5.00;99.90;;;;;;5093502;28;20514;-65
2020/12/31 09:57:24;;;;;;;12.33;11.13;;;5.00;99.90;;;;;;5093651;28;20533;-65
2020/12/31 09:59:53;;;;;;;11.17;10.07;;;5.00;99.90;;;;;;5093301;28;20839;-65
2020/12/31 10:02:19;;;;;;;12.33;11.30;;;5.10;99.90;;;;;;5093378;28;20798;-64
2020/12/31 10:04:45;;;;;;;11.63;10.43;;;5.10;99.90;;;;;;5093540;28;20441;-65
2020/12/31 10:07:12;;;;;;;11.90;10.27;;;5.20;99.90;;;;;;5093455;28;20449;-64
2020/12/31 10:09:38;;;;;;;12.53;11.00;;;5.20;99.90;;;;;;5093198;28;20470;-66
2020/12/31 10:12:04;;;;;;;13.87;10.67;;;5.30;99.90;;;;;;5093430;28;20474;-65
2020/12/31 10:14:32;;;;;;;11.40;10.33;;;5.40;99.90;;;;;;5093323;28;20448;-64
2020/12/31 10:17:01;;;;;;;11.23;10.13;;;5.40;99.90;;;;;;5093558;28;20904;-64
2020/12/31 10:19:29;;;;;;;10.70;9.73;;;5.50;99.90;;;;;;5092765;28;20518;-65
2020/12/31 10:21:57;;;;;;;11.93;10.93;;;5.50;99.90;;;;;;5092888;28;20541;-64
2020/12/31 10:24:23;;;;;;;11.00;10.10;;;5.50;99.90;;;;;;5092667;28;20936;-65
2020/12/31 10:26:50;;;;;;;9.97;9.07;;;5.50;99.90;;;;;;5092912;28;20438;-64
2020/12/31 10:29:16;;;;;;;12.17;10.47;;;5.50;99.90;;;;;;5092748;28;20473;-64
2020/12/31 10:31:43;;;;;;;9.90;9.00;;;5.50;99.90;;;;;;5092757;28;20481;-64
2020/12/31 10:34:13;;;;;;;10.57;9.67;;;5.50;99.90;;;;;;5092870;28;20460;-64
2020/12/31 10:36:41;;;;;;;10.60;9.77;;;5.60;99.90;;;;;;5092929;28;20442;-64
2020/12/31 10:39:08;;;;;;;11.17;10.07;;;5.60;99.90;;;;;;5092737;28;20478;-64
2020/12/31 10:41:36;;;;;;;10.60;9.70;;;5.60;99.90;;;;;;5092449;28;20474;-65
2020/12/31 10:44:05;;;;;;;11.07;10.07;;;5.60;99.90;;;;;;5093125;28;20514;-64
2020/12/31 10:46:33;;;;;;;9.90;9.00;;;5.60;99.90;;;;;;5092574;28;20520;-64
2020/12/31 10:49:01;;;;;;;10.57;9.77;;;5.60;99.90;;;;;;5092360;28;20462;-64
2020/12/31 10:51:28;;;;;;;8.63;8.03;;;5.60;99.90;;;;;;5092135;28;20531;-64
2020/12/31 10:53:55;;;;;;;9.43;8.63;;;5.70;99.90;;;;;;5092486;28;20795;-64
2020/12/31 10:56:21;;;;;;;9.97;9.37;;;5.70;99.90;;;;;;5092392;28;20449;-64
2020/12/31 10:58:47;;;;;;;9.60;8.97;;;5.70;99.90;;;;;;5092350;28;20442;-64
2020/12/31 11:01:14;;;;;;;10.00;9.30;;;5.70;99.90;;;;;;5092227;28;20446;-64
2020/12/31 11:03:42;;;;;;;9.13;8.53;;;5.70;99.90;;;;;;5092289;28;20931;-64
2020/12/31 11:06:08;;;;;;;10.40;9.60;;;5.70;99.90;;;;;;5092331;28;20444;-64
2020/12/31 11:08:35;;;;;;;10.87;10.10;;;5.80;99.90;;;;;;5092271;28;20450;-64
2020/12/31 11:11:02;;;;;;;10.90;10.17;;;5.90;99.90;;;;;;5092031;28;20481;-66
2020/12/31 11:13:28;;;;;;;11.27;10.47;;;5.90;99.90;;;;;;5092252;28;20794;-67
2020/12/31 11:15:54;;;;;;;11.80;10.50;;;5.90;99.90;;;;;;5091917;28;20936;-65
2020/12/31 11:18:20;;;;;;;10.57;9.87;;;6.00;99.90;;;;;;5091930;28;20434;-67
2020/12/31 11:20:51;;;;;;;10.67;9.70;;;6.00;99.90;;;;;;5091363;28;20461;-65
2020/12/31 11:23:17;;;;;;;12.07;11.27;;;5.90;99.90;;;;;;5091867;28;20439;-65
2020/12/31 11:25:44;;;;;;;10.70;9.90;;;5.90;99.90;;;;;;5091872;28;20439;-65
2020/12/31 11:28:10;;;;;;;11.73;10.80;;;5.90;99.90;;;;;;5091648;28;20438;-66
2020/12/31 11:30:37;;;;;;;11.03;10.20;;;5.80;99.90;;;;;;5091404;28;20485;-67
2020/12/31 11:33:03;;;;;;;10.57;9.87;;;5.80;99.90;;;;;;5091599;28;20441;-65
2020/12/31 11:35:29;;;;;;;10.27;9.77;;;5.70;99.90;;;;;;5090949;28;20449;-65
2020/12/31 11:37:56;;;;;;;9.33;8.80;;;5.70;99.90;;;;;;5091800;28;20453;-64
2020/12/31 11:40:22;;;;;;;9.70;9.20;;;5.60;99.90;;;;;;5091471;28;20485;-65
2020/12/31 11:42:49;;;;;;;10.80;10.27;;;5.60;99.90;;;;;;5091569;28;20449;-65
2020/12/31 11:45:15;;;;;;;9.97;9.37;;;5.50;99.90;;;;;;5091671;28;20442;-64
2020/12/31 11:47:41;;;;;;;10.63;10.13;;;5.50;99.90;;;;;;5091630;28;20812;-65
2020/12/31 11:50:09;;;;;;;11.20;10.40;;;5.50;99.90;;;;;;5091612;28;20470;-65
2020/12/31 11:52:35;;;;;;;10.90;10.40;;;5.50;99.90;;;;;;5091581;28;20501;-65
2020/12/31 11:55:01;;;;;;;10.50;10.00;;;5.50;99.90;;;;;;5091484;28;20438;-65
2020/12/31 11:57:27;;;;;;;10.60;9.97;;;5.50;99.90;;;;;;5091372;28;20447;-64
2020/12/31 11:59:54;;;;;;;10.10;9.57;;;5.50;99.90;;;;;;5091075;28;20466;-65
2020/12/31 12:02:21;;;;;;;10.17;9.67;;;5.60;99.90;;;;;;5091338;28;20505;-66
2020/12/31 12:04:47;;;;;;;10.83;10.17;;;5.60;99.90;;;;;;5091270;28;20824;-65
2020/12/31 12:07:13;;;;;;;10.40;9.90;;;5.50;99.90;;;;;;5091357;28;20446;-65
2020/12/31 12:09:40;;;;;;;11.27;10.60;;;5.40;99.90;;;;;;5090920;28;20470;-65
2020/12/31 12:12:07;;;;;;;11.10;10.30;;;5.30;99.90;;;;;;5091169;28;20478;-65
2020/12/31 12:14:33;;;;;;;11.83;11.20;;;5.40;99.90;;;;;;5091205;28;20441;-65
2020/12/31 12:17:01;;;;;;;10.43;9.90;;;5.30;99.90;;;;;;5091079;28;20815;-66
2020/12/31 12:19:27;;;;;;;10.87;10.17;;;5.30;99.90;;;;;;5091196;28;20458;-66
2020/12/31 12:21:57;;;;;;;9.47;8.73;;;5.30;99.90;;;;;;5090880;28;20442;-64
2020/12/31 12:24:24;;;;;;;10.90;10.20;;;5.20;99.90;;;;;;5091297;28;20450;-64
2020/12/31 12:26:50;;;;;;;10.90;10.20;;;5.30;99.90;;;;;;5091104;28;20434;-66
2020/12/31 12:29:16;;;;;;;10.27;9.70;;;5.30;99.90;;;;;;5090885;28;20466;-65
2020/12/31 12:31:43;;;;;;;10.07;9.47;;;5.30;99.90;;;;;;5093419;28;21192;-65
2020/12/31 12:34:10;;;;;;;9.17;8.77;;;5.30;99.90;;;;;;5107215;28;20445;-65
2020/12/31 12:36:37;;;;;;;10.80;10.00;;;5.40;99.90;;;;;;5111469;28;20922;-66
2020/12/31 12:39:04;;;;;;;10.70;10.00;;;5.50;99.90;;;;;;5111446;28;20476;-64
2020/12/31 12:41:30;;;;;;;10.97;10.23;;;5.70;99.90;;;;;;5111304;28;20441;-65
2020/12/31 12:43:56;;;;;;;11.73;10.93;;;5.80;99.90;;;;;;5111541;28;20451;-64
2020/12/31 12:46:23;;;;;;;12.47;11.40;;;5.90;99.90;;;;;;5112808;28;20478;-65
2020/12/31 12:48:49;;;;;;;12.80;12.07;;;5.80;99.90;;;;;;5115257;28;20441;-64
2020/12/31 12:51:17;;;;;;;12.63;11.53;;;5.80;99.90;;;;;;5115161;28;20480;-64